createdAt,value
2023-03-10T00:00:03.900Z,509.00
2023-03-10T00:00:53.970Z,517.00
2023-03-10T00:01:44.042Z,510.00
2023-03-10T00:02:34.318Z,516.00
2023-03-10T00:03:24.415Z,511.00
2023-03-10T00:04:14.526Z,513.00
2023-03-10T00:05:04.527Z,513.00
2023-03-10T00:05:54.581Z,521.00
2023-03-10T00:06:44.592Z,524.00
2023-03-10T00:07:34.625Z,521.00
2023-03-10T00:08:27.055Z,523.00
2023-03-10T00:09:14.769Z,518.00
2023-03-10T00:10:04.882Z,526.00
2023-03-10T00:10:55.031Z,528.00
2023-03-10T00:11:45.104Z,521.00
2023-03-10T00:12:35.173Z,521.00
2023-03-10T00:13:25.483Z,519.00
2023-03-10T00:14:15.502Z,520.00
2023-03-10T00:15:05.600Z,516.00
2023-03-10T00:15:55.750Z,523.00
2023-03-10T00:16:45.683Z,523.00
2023-03-10T00:17:35.748Z,530.00
2023-03-10T00:18:25.858Z,517.00
2023-03-10T00:19:15.862Z,524.00
2023-03-10T00:20:05.919Z,525.00
2023-03-10T00:20:55.986Z,523.00
2023-03-10T00:21:46.068Z,523.00
2023-03-10T00:22:36.334Z,526.00
2023-03-10T00:23:26.437Z,532.00
2023-03-10T00:24:16.462Z,533.00
2023-03-10T00:25:06.531Z,529.00
2023-03-10T00:25:56.591Z,529.00
2023-03-10T00:26:46.672Z,524.00
2023-03-10T00:27:36.707Z,523.00
2023-03-10T00:28:26.795Z,521.00
2023-03-10T00:29:16.806Z,518.00
2023-03-10T00:30:06.874Z,530.00
2023-03-10T00:30:57.014Z,528.00
2023-03-10T00:31:47.184Z,525.00
2023-03-10T00:32:37.372Z,526.00
2023-03-10T00:33:27.329Z,531.00
2023-03-10T00:34:17.346Z,525.00
2023-03-10T00:35:07.423Z,528.00
2023-03-10T00:35:57.545Z,531.00
2023-03-10T00:36:47.545Z,530.00
2023-03-10T00:37:37.555Z,531.00
2023-03-10T00:38:27.679Z,531.00
2023-03-10T00:39:17.690Z,525.00
2023-03-10T00:40:07.762Z,525.00
2023-03-10T00:40:57.798Z,525.00
2023-03-10T00:41:47.852Z,527.00
2023-03-10T00:42:37.927Z,532.00
2023-03-10T00:43:27.998Z,530.00
2023-03-10T00:44:18.018Z,535.00
2023-03-10T00:45:08.090Z,532.00
2023-03-10T00:45:58.250Z,530.00
2023-03-10T00:46:48.467Z,529.00
2023-03-10T00:47:38.450Z,528.00
2023-03-10T00:48:28.534Z,530.00
2023-03-10T00:49:18.813Z,527.00
2023-03-10T00:50:08.853Z,532.00
2023-03-10T00:50:58.929Z,534.00
2023-03-10T00:51:49.246Z,528.00
2023-03-10T00:52:39.315Z,534.00
2023-03-10T00:53:29.371Z,526.00
2023-03-10T00:54:19.399Z,530.00
2023-03-10T00:55:09.479Z,528.00
2023-03-10T00:55:59.542Z,529.00
2023-03-10T00:56:49.616Z,534.00
2023-03-10T00:57:39.674Z,530.00
2023-03-10T00:58:29.769Z,531.00
2023-03-10T00:59:19.794Z,528.00
2023-03-10T01:00:09.880Z,531.00
2023-03-10T01:01:00.042Z,525.00
2023-03-10T01:01:50.138Z,521.00
2023-03-10T01:02:40.155Z,530.00
2023-03-10T01:03:30.495Z,514.00
2023-03-10T01:04:20.542Z,529.00
2023-03-10T01:05:10.602Z,527.00
2023-03-10T01:06:00.932Z,523.00
2023-03-10T01:06:50.996Z,532.00
2023-03-10T01:07:41.061Z,535.00
2023-03-10T01:08:31.378Z,532.00
2023-03-10T01:09:21.403Z,533.00
2023-03-10T01:10:11.464Z,535.00
2023-03-10T01:11:01.531Z,529.00
2023-03-10T01:11:51.605Z,531.00
2023-03-10T01:12:41.676Z,529.00
2023-03-10T01:13:31.763Z,537.00
2023-03-10T01:14:21.790Z,527.00
2023-03-10T01:15:11.882Z,534.00
2023-03-10T01:16:02.022Z,528.00
2023-03-10T01:16:51.945Z,533.00
2023-03-10T01:17:42.215Z,534.00
2023-03-10T01:18:32.280Z,535.00
2023-03-10T01:19:22.306Z,531.00
2023-03-10T01:20:12.368Z,534.00
2023-03-10T01:21:02.438Z,536.00
2023-03-10T01:21:52.513Z,530.00
2023-03-10T01:22:42.580Z,534.00
2023-03-10T01:23:32.685Z,532.00
2023-03-10T01:24:22.701Z,535.00
2023-03-10T01:25:12.772Z,533.00
2023-03-10T01:26:02.842Z,538.00
2023-03-10T01:26:53.003Z,539.00
2023-03-10T01:27:43.027Z,534.00
2023-03-10T01:28:33.146Z,547.00
2023-03-10T01:29:23.155Z,553.00
2023-03-10T01:30:13.237Z,545.00
2023-03-10T01:31:03.303Z,543.00
2023-03-10T01:31:53.331Z,542.00
2023-03-10T01:32:43.419Z,542.00
2023-03-10T01:33:33.477Z,534.00
2023-03-10T01:34:23.478Z,536.00
2023-03-10T01:35:13.550Z,532.00
2023-03-10T01:36:03.864Z,535.00
2023-03-10T01:36:53.906Z,532.00
2023-03-10T01:37:44.614Z,535.00
2023-03-10T01:38:34.273Z,536.00
2023-03-10T01:39:24.291Z,532.00
2023-03-10T01:40:14.363Z,529.00
2023-03-10T01:41:04.429Z,532.00
2023-03-10T01:41:54.474Z,530.00
2023-03-10T01:42:44.495Z,534.00
2023-03-10T01:43:34.638Z,536.00
2023-03-10T01:44:24.627Z,531.00
2023-03-10T01:45:14.689Z,535.00
2023-03-10T01:46:04.746Z,540.00
2023-03-10T01:46:54.883Z,533.00
2023-03-10T01:47:45.109Z,538.00
2023-03-10T01:48:35.196Z,533.00
2023-03-10T01:49:25.236Z,535.00
2023-03-10T01:50:15.539Z,536.00
2023-03-10T01:51:05.606Z,530.00
2023-03-10T01:51:55.672Z,532.00
2023-03-10T01:52:45.974Z,544.00
2023-03-10T01:53:36.018Z,543.00
2023-03-10T01:54:26.044Z,536.00
2023-03-10T01:55:16.131Z,538.00
2023-03-10T01:56:06.194Z,537.00
2023-03-10T01:56:56.257Z,535.00
2023-03-10T01:57:46.323Z,541.00
2023-03-10T01:58:36.393Z,537.00
2023-03-10T01:59:26.405Z,540.00
2023-03-10T02:00:16.505Z,535.00
2023-03-10T02:01:06.626Z,540.00
2023-03-10T02:01:56.871Z,537.00
2023-03-10T02:02:46.822Z,536.00
2023-03-10T02:03:36.915Z,529.00
2023-03-10T02:04:26.947Z,529.00
2023-03-10T02:05:17.032Z,537.00
2023-03-10T02:06:07.078Z,532.00
2023-03-10T02:06:57.144Z,531.00
2023-03-10T02:07:47.208Z,536.00
2023-03-10T02:08:37.295Z,538.00
2023-03-10T02:09:27.324Z,534.00
2023-03-10T02:10:17.390Z,525.00
2023-03-10T02:11:07.547Z,530.00
2023-03-10T02:11:57.632Z,530.00
2023-03-10T02:12:47.651Z,532.00
2023-03-10T02:13:38.001Z,532.00
2023-03-10T02:14:28.020Z,535.00
2023-03-10T02:15:18.107Z,534.00
2023-03-10T02:16:08.465Z,534.00
2023-03-10T02:16:58.496Z,536.00
2023-03-10T02:17:48.596Z,528.00
2023-03-10T02:18:38.902Z,538.00
2023-03-10T02:19:28.917Z,536.00
2023-03-10T02:20:18.991Z,527.00
2023-03-10T02:21:09.341Z,543.00
2023-03-10T02:21:59.385Z,530.00
2023-03-10T02:22:49.478Z,533.00
2023-03-10T02:23:45.050Z,531.00
2023-03-10T02:24:30.793Z,531.00
2023-03-10T02:25:19.850Z,529.00
2023-03-10T02:26:09.912Z,533.00
2023-03-10T02:26:59.986Z,525.00
2023-03-10T02:27:50.061Z,528.00
2023-03-10T02:28:40.139Z,538.00
2023-03-10T02:29:30.166Z,528.00
2023-03-10T02:30:20.292Z,536.00
2023-03-10T02:31:10.417Z,533.00
2023-03-10T02:32:00.446Z,529.00
2023-03-10T02:32:50.496Z,533.00
2023-03-10T02:33:40.537Z,540.00
2023-03-10T02:34:30.579Z,541.00
2023-03-10T02:35:20.661Z,536.00
2023-03-10T02:36:10.726Z,531.00
2023-03-10T02:37:00.786Z,535.00
2023-03-10T02:37:50.821Z,530.00
2023-03-10T02:38:40.923Z,533.00
2023-03-10T02:39:31.210Z,532.00
2023-03-10T02:40:21.279Z,534.00
2023-03-10T02:41:11.303Z,535.00
2023-03-10T02:42:01.635Z,528.00
2023-03-10T02:42:51.704Z,539.00
2023-03-10T02:43:41.790Z,547.00
2023-03-10T02:44:32.067Z,549.00
2023-03-10T02:45:22.144Z,550.00
2023-03-10T02:46:12.295Z,548.00
2023-03-10T02:47:02.530Z,537.00
2023-03-10T02:47:52.595Z,544.00
2023-03-10T02:48:42.683Z,539.00
2023-03-10T02:49:32.970Z,543.00
2023-03-10T02:50:23.021Z,538.00
2023-03-10T02:51:13.050Z,538.00
2023-03-10T02:52:03.134Z,539.00
2023-03-10T02:52:53.182Z,541.00
2023-03-10T02:53:43.276Z,541.00
2023-03-10T02:54:33.288Z,537.00
2023-03-10T02:55:23.361Z,542.00
2023-03-10T02:56:13.427Z,538.00
2023-03-10T02:57:03.506Z,543.00
2023-03-10T02:57:53.542Z,533.00
2023-03-10T02:58:43.760Z,538.00
2023-03-10T02:59:33.776Z,535.00
2023-03-10T03:00:23.882Z,542.00
2023-03-10T03:01:14.013Z,540.00
2023-03-10T03:02:03.976Z,538.00
2023-03-10T03:02:54.038Z,536.00
2023-03-10T03:03:44.182Z,529.00
2023-03-10T03:04:34.175Z,538.00
2023-03-10T03:05:24.243Z,548.00
2023-03-10T03:06:14.273Z,545.00
2023-03-10T03:07:04.360Z,535.00
2023-03-10T03:07:54.630Z,544.00
2023-03-10T03:08:44.729Z,547.00
2023-03-10T03:09:34.735Z,543.00
2023-03-10T03:10:25.073Z,548.00
2023-03-10T03:11:15.103Z,547.00
2023-03-10T03:12:05.207Z,546.00
2023-03-10T03:12:55.212Z,540.00
2023-03-10T03:13:45.296Z,542.00
2023-03-10T03:14:35.325Z,545.00
2023-03-10T03:15:25.410Z,543.00
2023-03-10T03:16:15.557Z,536.00
2023-03-10T03:17:05.664Z,540.00
2023-03-10T03:17:55.594Z,534.00
2023-03-10T03:18:45.677Z,543.00
2023-03-10T03:19:35.919Z,542.00
2023-03-10T03:20:25.985Z,537.00
2023-03-10T03:21:16.058Z,549.00
2023-03-10T03:22:06.341Z,544.00
2023-03-10T03:22:56.433Z,536.00
2023-03-10T03:23:46.519Z,536.00
2023-03-10T03:24:36.810Z,547.00
2023-03-10T03:25:26.846Z,547.00
2023-03-10T03:26:16.858Z,550.00
2023-03-10T03:27:06.922Z,536.00
2023-03-10T03:27:56.992Z,536.00
2023-03-10T03:28:47.054Z,540.00
2023-03-10T03:29:37.072Z,539.00
2023-03-10T03:30:27.116Z,536.00
2023-03-10T03:31:17.241Z,535.00
2023-03-10T03:32:07.283Z,542.00
2023-03-10T03:32:57.273Z,538.00
2023-03-10T03:33:47.328Z,542.00
2023-03-10T03:34:37.353Z,542.00
2023-03-10T03:35:27.522Z,551.00
2023-03-10T03:36:17.487Z,547.00
2023-03-10T03:37:07.568Z,552.00
2023-03-10T03:37:57.586Z,547.00
2023-03-10T03:38:47.707Z,548.00
2023-03-10T03:39:37.840Z,550.00
2023-03-10T03:40:27.973Z,545.00
2023-03-10T03:41:18.009Z,543.00
2023-03-10T03:42:08.045Z,559.00
2023-03-10T03:42:58.086Z,559.00
2023-03-10T03:43:48.136Z,547.00
2023-03-10T03:44:38.162Z,551.00
2023-03-10T03:45:28.227Z,547.00
2023-03-10T03:46:18.350Z,539.00
2023-03-10T03:47:08.360Z,549.00
2023-03-10T03:47:58.424Z,547.00
2023-03-10T03:48:48.518Z,543.00
2023-03-10T03:49:38.765Z,544.00
2023-03-10T03:50:28.849Z,551.00
2023-03-10T03:51:18.871Z,548.00
2023-03-10T03:52:08.925Z,544.00
2023-03-10T03:52:58.992Z,541.00
2023-03-10T03:53:49.098Z,547.00
2023-03-10T03:54:39.105Z,539.00
2023-03-10T03:55:29.182Z,538.00
2023-03-10T03:56:19.245Z,545.00
2023-03-10T03:57:09.327Z,541.00
2023-03-10T03:57:59.369Z,542.00
2023-03-10T03:58:49.608Z,543.00
2023-03-10T03:59:39.628Z,540.00
2023-03-10T04:00:29.699Z,543.00
2023-03-10T04:01:19.757Z,542.00
2023-03-10T04:02:09.865Z,540.00
2023-03-10T04:02:59.890Z,538.00
2023-03-10T04:03:50.042Z,543.00
2023-03-10T04:04:40.015Z,555.00
2023-03-10T04:05:30.082Z,543.00
2023-03-10T04:06:20.136Z,542.00
2023-03-10T04:07:10.216Z,546.00
2023-03-10T04:08:00.454Z,539.00
2023-03-10T04:08:50.544Z,543.00
2023-03-10T04:09:40.585Z,548.00
2023-03-10T04:10:30.650Z,551.00
2023-03-10T04:11:20.689Z,542.00
2023-03-10T04:12:10.772Z,542.00
2023-03-10T04:13:00.786Z,544.00
2023-03-10T04:13:50.869Z,546.00
2023-03-10T04:14:40.884Z,551.00
2023-03-10T04:15:31.008Z,549.00
2023-03-10T04:16:21.129Z,555.00
2023-03-10T04:17:12.294Z,555.00
2023-03-10T04:18:01.137Z,554.00
2023-03-10T04:18:51.209Z,549.00
2023-03-10T04:19:41.232Z,541.00
2023-03-10T04:20:31.350Z,535.00
2023-03-10T04:21:21.413Z,539.00
2023-03-10T04:22:11.490Z,552.00
2023-03-10T04:23:01.763Z,555.00
2023-03-10T04:23:51.860Z,563.00
2023-03-10T04:24:41.872Z,555.00
2023-03-10T04:25:31.940Z,550.00
2023-03-10T04:26:21.979Z,556.00
2023-03-10T04:27:12.057Z,551.00
2023-03-10T04:28:02.132Z,554.00
2023-03-10T04:28:52.149Z,552.00
2023-03-10T04:29:42.170Z,552.00
2023-03-10T04:30:32.246Z,552.00
2023-03-10T04:31:22.444Z,551.00
2023-03-10T04:32:12.597Z,551.00
2023-03-10T04:33:02.666Z,546.00
2023-03-10T04:33:52.722Z,553.00
2023-03-10T04:34:43.025Z,545.00
2023-03-10T04:35:33.122Z,552.00
2023-03-10T04:36:23.154Z,547.00
2023-03-10T04:37:13.432Z,556.00
2023-03-10T04:38:03.500Z,547.00
2023-03-10T04:38:53.578Z,550.00
2023-03-10T04:39:43.861Z,544.00
2023-03-10T04:40:33.959Z,546.00
2023-03-10T04:41:23.997Z,549.00
2023-03-10T04:42:14.280Z,549.00
2023-03-10T04:43:04.349Z,547.00
2023-03-10T04:43:54.442Z,543.00
2023-03-10T04:44:44.739Z,545.00
2023-03-10T04:45:34.814Z,548.00
2023-03-10T04:46:24.972Z,548.00
2023-03-10T04:47:14.926Z,542.00
2023-03-10T04:48:04.985Z,544.00
2023-03-10T04:48:55.815Z,537.00
2023-03-10T04:49:45.122Z,546.00
2023-03-10T04:50:35.199Z,536.00
2023-03-10T04:51:25.216Z,547.00
2023-03-10T04:52:15.292Z,541.00
2023-03-10T04:53:05.381Z,546.00
2023-03-10T04:53:55.633Z,540.00
2023-03-10T04:54:45.668Z,546.00
2023-03-10T04:55:35.783Z,547.00
2023-03-10T04:56:25.781Z,541.00
2023-03-10T04:57:15.857Z,546.00
2023-03-10T04:58:05.924Z,541.00
2023-03-10T04:58:56.006Z,545.00
2023-03-10T04:59:46.035Z,541.00
2023-03-10T05:00:36.183Z,552.00
2023-03-10T05:01:26.228Z,544.00
2023-03-10T05:02:16.209Z,548.00
2023-03-10T05:03:06.497Z,558.00
2023-03-10T05:03:56.732Z,559.00
2023-03-10T05:04:46.677Z,559.00
2023-03-10T05:05:37.685Z,557.00
2023-03-10T05:06:26.750Z,551.00
2023-03-10T05:07:16.806Z,547.00
2023-03-10T05:08:06.886Z,545.00
2023-03-10T05:08:56.927Z,551.00
2023-03-10T05:09:46.958Z,545.00
2023-03-10T05:10:37.024Z,544.00
2023-03-10T05:11:27.272Z,554.00
2023-03-10T05:12:17.252Z,548.00
2023-03-10T05:13:07.331Z,552.00
2023-03-10T05:13:57.630Z,557.00
2023-03-10T05:14:47.666Z,559.00
2023-03-10T05:15:37.683Z,557.00
2023-03-10T05:16:27.854Z,558.00
2023-03-10T05:17:17.795Z,554.00
2023-03-10T05:18:07.876Z,556.00
2023-03-10T05:18:57.921Z,559.00
2023-03-10T05:19:47.948Z,555.00
2023-03-10T05:20:38.102Z,555.00
2023-03-10T05:21:28.183Z,549.00
2023-03-10T05:22:18.219Z,549.00
2023-03-10T05:23:08.552Z,551.00
2023-03-10T05:23:58.635Z,549.00
2023-03-10T05:24:48.691Z,557.00
2023-03-10T05:25:38.714Z,556.00
2023-03-10T05:26:28.797Z,557.00
2023-03-10T05:27:18.857Z,545.00
2023-03-10T05:28:08.941Z,548.00
2023-03-10T05:28:58.980Z,557.00
2023-03-10T05:29:49.014Z,554.00
2023-03-10T05:30:39.054Z,550.00
2023-03-10T05:31:29.289Z,554.00
2023-03-10T05:32:19.412Z,550.00
2023-03-10T05:33:09.457Z,547.00
2023-03-10T05:33:59.543Z,558.00
2023-03-10T05:34:49.570Z,553.00
2023-03-10T05:35:39.660Z,557.00
2023-03-10T05:36:29.714Z,557.00
2023-03-10T05:37:19.752Z,554.00
2023-03-10T05:38:09.808Z,565.00
2023-03-10T05:38:59.901Z,557.00
2023-03-10T05:39:49.936Z,560.00
2023-03-10T05:40:39.975Z,561.00
2023-03-10T05:41:30.230Z,558.00
2023-03-10T05:42:20.267Z,561.00
2023-03-10T05:43:10.468Z,558.00
2023-03-10T05:44:00.383Z,563.00
2023-03-10T05:44:50.421Z,564.00
2023-03-10T05:45:40.448Z,565.00
2023-03-10T05:46:30.570Z,557.00
2023-03-10T05:47:20.557Z,561.00
2023-03-10T05:48:10.657Z,556.00
2023-03-10T05:49:00.693Z,570.00
2023-03-10T05:49:50.717Z,569.00
2023-03-10T05:50:40.764Z,561.00
2023-03-10T05:51:30.845Z,561.00
2023-03-10T05:52:20.879Z,553.00
2023-03-10T05:53:10.953Z,558.00
2023-03-10T05:54:01.034Z,562.00
2023-03-10T05:54:51.073Z,567.00
2023-03-10T05:55:41.110Z,562.00
2023-03-10T05:56:31.188Z,561.00
2023-03-10T05:57:21.476Z,557.00
2023-03-10T05:58:11.547Z,557.00
2023-03-10T05:59:01.657Z,556.00
2023-03-10T05:59:51.918Z,550.00
2023-03-10T06:00:41.978Z,554.00
2023-03-10T06:01:32.060Z,557.00
2023-03-10T06:02:22.388Z,556.00
2023-03-10T06:03:12.486Z,554.00
2023-03-10T06:04:02.576Z,556.00
2023-03-10T06:04:52.828Z,552.00
2023-03-10T06:05:42.850Z,556.00
2023-03-10T06:06:32.937Z,551.00
2023-03-10T06:07:22.968Z,551.00
2023-03-10T06:08:13.067Z,549.00
2023-03-10T06:09:03.076Z,552.00
2023-03-10T06:09:53.091Z,558.00
2023-03-10T06:10:43.168Z,555.00
2023-03-10T06:11:33.255Z,560.00
2023-03-10T06:12:23.283Z,563.00
2023-03-10T06:13:13.361Z,561.00
2023-03-10T06:14:03.668Z,558.00
2023-03-10T06:14:53.728Z,554.00
2023-03-10T06:15:43.745Z,564.00
2023-03-10T06:16:33.854Z,550.00
2023-03-10T06:17:23.825Z,553.00
2023-03-10T06:18:13.897Z,565.00
2023-03-10T06:19:03.981Z,562.00
2023-03-10T06:19:54.013Z,559.00
2023-03-10T06:20:44.038Z,559.00
2023-03-10T06:21:34.117Z,554.00
2023-03-10T06:22:24.182Z,553.00
2023-03-10T06:23:14.499Z,560.00
2023-03-10T06:24:04.537Z,557.00
2023-03-10T06:24:54.558Z,559.00
2023-03-10T06:25:44.596Z,566.00
2023-03-10T06:26:34.651Z,574.00
2023-03-10T06:27:24.666Z,564.00
2023-03-10T06:28:14.746Z,571.00
2023-03-10T06:29:04.836Z,569.00
2023-03-10T06:29:54.873Z,575.00
2023-03-10T06:30:44.932Z,567.00
2023-03-10T06:31:35.062Z,561.00
2023-03-10T06:32:25.070Z,567.00
2023-03-10T06:33:15.075Z,567.00
2023-03-10T06:34:05.154Z,573.00
2023-03-10T06:34:55.197Z,563.00
2023-03-10T06:35:45.236Z,568.00
2023-03-10T06:36:35.305Z,579.00
2023-03-10T06:37:25.337Z,571.00
2023-03-10T06:38:15.414Z,562.00
2023-03-10T06:39:05.722Z,561.00
2023-03-10T06:39:55.756Z,561.00
2023-03-10T06:40:45.781Z,567.00
2023-03-10T06:41:35.859Z,555.00
2023-03-10T06:42:25.886Z,553.00
2023-03-10T06:43:15.939Z,560.00
2023-03-10T06:44:06.054Z,560.00
2023-03-10T06:44:56.040Z,563.00
2023-03-10T06:45:46.162Z,564.00
2023-03-10T06:46:36.193Z,554.00
2023-03-10T06:47:26.230Z,555.00
2023-03-10T06:48:16.534Z,561.00
2023-03-10T06:49:06.616Z,556.00
2023-03-10T06:49:56.658Z,570.00
2023-03-10T06:50:46.995Z,559.00
2023-03-10T06:51:37.071Z,561.00
2023-03-10T06:52:27.092Z,577.00
2023-03-10T06:53:17.175Z,579.00
2023-03-10T06:54:07.215Z,580.00
2023-03-10T06:54:57.260Z,561.00
2023-03-10T06:55:47.318Z,567.00
2023-03-10T06:56:37.397Z,582.00
2023-03-10T06:57:27.425Z,583.00
2023-03-10T06:58:17.508Z,573.00
2023-03-10T06:59:07.547Z,569.00
2023-03-10T06:59:57.593Z,570.00
2023-03-10T07:00:47.646Z,563.00
2023-03-10T07:01:37.724Z,573.00
2023-03-10T07:02:27.770Z,570.00
2023-03-10T07:03:17.817Z,566.00
2023-03-10T07:04:07.861Z,567.00
2023-03-10T07:04:57.959Z,563.00
2023-03-10T07:05:47.969Z,571.00
2023-03-10T07:06:38.040Z,579.00
2023-03-10T07:07:28.068Z,563.00
2023-03-10T07:08:18.151Z,567.00
2023-03-10T07:09:08.195Z,563.00
2023-03-10T07:09:58.228Z,574.00
2023-03-10T07:10:49.261Z,563.00
2023-03-10T07:11:38.354Z,567.00
2023-03-10T07:12:28.382Z,565.00
2023-03-10T07:13:18.719Z,561.00
2023-03-10T07:14:08.798Z,555.00
2023-03-10T07:14:58.845Z,559.00
2023-03-10T07:15:48.861Z,555.00
2023-03-10T07:16:38.993Z,557.00
2023-03-10T07:17:28.974Z,555.00
2023-03-10T07:18:19.033Z,561.00
2023-03-10T07:19:09.099Z,558.00
2023-03-10T07:19:59.122Z,554.00
2023-03-10T07:20:49.190Z,554.00
2023-03-10T07:21:39.258Z,554.00
2023-03-10T07:22:29.506Z,557.00
2023-03-10T07:23:19.562Z,556.00
2023-03-10T07:24:09.662Z,557.00
2023-03-10T07:24:59.950Z,555.00
2023-03-10T07:25:50.037Z,556.00
2023-03-10T07:26:40.091Z,557.00
2023-03-10T07:27:30.376Z,552.00
2023-03-10T07:28:20.402Z,556.00
2023-03-10T07:29:10.515Z,558.00
2023-03-10T07:30:00.814Z,560.00
2023-03-10T07:30:50.975Z,562.00
2023-03-10T07:31:40.941Z,561.00
2023-03-10T07:32:31.258Z,561.00
2023-03-10T07:33:21.295Z,551.00
2023-03-10T07:34:11.403Z,553.00
2023-03-10T07:35:01.411Z,547.00
2023-03-10T07:35:51.511Z,559.00
2023-03-10T07:36:41.519Z,556.00
2023-03-10T07:37:31.597Z,555.00
2023-03-10T07:38:21.631Z,566.00
2023-03-10T07:39:11.720Z,565.00
2023-03-10T07:40:01.753Z,565.00
2023-03-10T07:40:51.831Z,562.00
2023-03-10T07:41:42.067Z,559.00
2023-03-10T07:42:32.144Z,562.00
2023-03-10T07:43:22.176Z,561.00
2023-03-10T07:44:12.260Z,558.00
2023-03-10T07:45:02.267Z,562.00
2023-03-10T07:45:52.382Z,556.00
2023-03-10T07:46:42.485Z,565.00
2023-03-10T07:47:32.473Z,559.00
2023-03-10T07:48:22.542Z,554.00
2023-03-10T07:49:12.639Z,559.00
2023-03-10T07:50:02.690Z,558.00
2023-03-10T07:50:52.931Z,562.00
2023-03-10T07:51:42.949Z,561.00
2023-03-10T07:52:32.998Z,569.00
2023-03-10T07:53:23.069Z,558.00
2023-03-10T07:54:13.127Z,564.00
2023-03-10T07:55:03.152Z,557.00
2023-03-10T07:55:53.247Z,560.00
2023-03-10T07:56:43.297Z,558.00
2023-03-10T07:57:33.336Z,555.00
2023-03-10T07:58:23.390Z,556.00
2023-03-10T07:59:13.481Z,558.00
2023-03-10T08:00:03.492Z,560.00
2023-03-10T08:00:53.577Z,558.00
2023-03-10T08:01:43.605Z,558.00
2023-03-10T08:02:33.679Z,561.00
2023-03-10T08:03:24.020Z,555.00
2023-03-10T08:04:14.224Z,561.00
2023-03-10T08:05:04.176Z,557.00
2023-03-10T08:05:54.164Z,556.00
2023-03-10T08:06:44.160Z,562.00
2023-03-10T08:07:34.236Z,564.00
2023-03-10T08:08:24.273Z,560.00
2023-03-10T08:09:14.348Z,562.00
2023-03-10T08:10:04.380Z,553.00
2023-03-10T08:10:54.464Z,556.00
2023-03-10T08:11:44.525Z,565.00
2023-03-10T08:12:34.816Z,553.00
2023-03-10T08:13:24.863Z,561.00
2023-03-10T08:14:14.931Z,562.00
2023-03-10T08:15:04.953Z,566.00
2023-03-10T08:15:55.058Z,558.00
2023-03-10T08:16:45.057Z,558.00
2023-03-10T08:17:35.558Z,558.00
2023-03-10T08:18:25.198Z,566.00
2023-03-10T08:19:15.284Z,560.00
2023-03-10T08:20:05.318Z,557.00
2023-03-10T08:20:55.395Z,556.00
2023-03-10T08:21:45.748Z,551.00
2023-03-10T08:22:36.333Z,556.00
2023-03-10T08:23:25.847Z,554.00
2023-03-10T08:24:16.197Z,558.00
2023-03-10T08:25:06.244Z,559.00
2023-03-10T08:25:56.318Z,555.00
2023-03-10T08:26:46.344Z,554.00
2023-03-10T08:27:36.635Z,560.00
2023-03-10T08:28:26.474Z,556.00
2023-03-10T08:29:16.573Z,556.00
2023-03-10T08:30:06.594Z,559.00
2023-03-10T08:31:04.042Z,561.00
2023-03-10T08:31:47.828Z,561.00
2023-03-10T08:32:36.831Z,555.00
2023-03-10T08:33:26.839Z,561.00
2023-03-10T08:34:16.921Z,558.00
2023-03-10T08:35:06.943Z,556.00
2023-03-10T08:35:57.035Z,553.00
2023-03-10T08:36:47.079Z,556.00
2023-03-10T08:37:37.733Z,554.00
2023-03-10T08:38:27.316Z,547.00
2023-03-10T08:39:17.411Z,554.00
2023-03-10T08:40:07.438Z,562.00
2023-03-10T08:40:57.509Z,555.00
2023-03-10T08:41:47.581Z,569.00
2023-03-10T08:42:37.652Z,564.00
2023-03-10T08:43:27.712Z,572.00
2023-03-10T08:44:17.823Z,561.00
2023-03-10T08:45:08.773Z,564.00
2023-03-10T08:45:57.882Z,566.00
2023-03-10T08:46:47.999Z,558.00
2023-03-10T08:47:38.035Z,557.00
2023-03-10T08:48:28.030Z,563.00
2023-03-10T08:49:18.095Z,558.00
2023-03-10T08:50:08.124Z,558.00
2023-03-10T08:50:58.462Z,554.00
2023-03-10T08:51:48.528Z,551.00
2023-03-10T08:52:38.604Z,561.00
2023-03-10T08:53:28.688Z,551.00
2023-03-10T08:54:18.747Z,555.00
2023-03-10T08:55:08.767Z,553.00
2023-03-10T08:55:58.851Z,558.00
2023-03-10T08:56:48.950Z,559.00
2023-03-10T08:57:38.996Z,554.00
2023-03-10T08:58:29.027Z,555.00
2023-03-10T08:59:19.090Z,552.00
2023-03-10T09:00:09.395Z,556.00
2023-03-10T09:00:59.454Z,560.00
2023-03-10T09:01:49.581Z,559.00
2023-03-10T09:02:39.897Z,557.00
2023-03-10T09:03:31.773Z,561.00
2023-03-10T09:04:19.978Z,557.00
2023-03-10T09:05:10.018Z,556.00
2023-03-10T09:06:00.127Z,553.00
2023-03-10T09:06:50.125Z,554.00
2023-03-10T09:07:40.274Z,558.00
2023-03-10T09:08:30.412Z,555.00
2023-03-10T09:09:20.468Z,552.00
2023-03-10T09:10:10.477Z,550.00
2023-03-10T09:11:00.801Z,549.00
2023-03-10T09:11:50.873Z,548.00
2023-03-10T09:12:40.949Z,551.00
2023-03-10T09:13:31.240Z,551.00
2023-03-10T09:14:21.328Z,552.00
2023-03-10T09:15:11.363Z,545.00
2023-03-10T09:16:01.713Z,553.00
2023-03-10T09:16:51.973Z,553.00
2023-03-10T09:17:41.835Z,555.00
2023-03-10T09:18:31.863Z,554.00
2023-03-10T09:19:21.958Z,550.00
2023-03-10T09:20:11.973Z,550.00
2023-03-10T09:21:02.047Z,553.00
2023-03-10T09:21:52.116Z,547.00
2023-03-10T09:22:42.195Z,546.00
2023-03-10T09:23:32.270Z,548.00
2023-03-10T09:24:22.371Z,550.00
2023-03-10T09:25:12.545Z,549.00
2023-03-10T09:26:02.633Z,552.00
2023-03-10T09:26:52.640Z,551.00
2023-03-10T09:27:44.798Z,549.00
2023-03-10T09:28:32.761Z,547.00
2023-03-10T09:29:36.497Z,550.00
2023-03-10T09:30:13.922Z,549.00
2023-03-10T09:31:02.955Z,550.00
2023-03-10T09:31:53.300Z,549.00
2023-03-10T09:32:43.126Z,552.00
2023-03-10T09:33:33.112Z,550.00
2023-03-10T09:34:23.214Z,553.00
2023-03-10T09:35:13.247Z,552.00
2023-03-10T09:36:07.640Z,550.00
2023-03-10T09:36:53.568Z,550.00
2023-03-10T09:37:43.642Z,550.00
2023-03-10T09:38:33.714Z,551.00
2023-03-10T09:39:24.013Z,554.00
2023-03-10T09:40:14.035Z,554.00
2023-03-10T09:41:04.095Z,562.00
2023-03-10T09:41:54.408Z,557.00
2023-03-10T09:42:44.481Z,556.00
2023-03-10T09:43:34.501Z,561.00
2023-03-10T09:44:24.840Z,563.00
2023-03-10T09:45:14.860Z,563.00
2023-03-10T09:46:05.127Z,556.00
2023-03-10T09:46:54.985Z,554.00
2023-03-10T09:47:45.059Z,561.00
2023-03-10T09:48:35.127Z,560.00
2023-03-10T09:49:25.204Z,554.00
2023-03-10T09:50:15.234Z,556.00
2023-03-10T09:51:05.307Z,569.00
2023-03-10T09:51:55.377Z,562.00
2023-03-10T09:52:45.456Z,553.00
2023-03-10T09:53:35.658Z,567.00
2023-03-10T09:54:25.767Z,563.00
2023-03-10T09:55:15.777Z,562.00
2023-03-10T09:56:06.103Z,549.00
2023-03-10T09:56:56.175Z,559.00
2023-03-10T09:57:46.257Z,549.00
2023-03-10T09:58:36.317Z,549.00
2023-03-10T09:59:26.398Z,549.00
2023-03-10T10:00:16.430Z,551.00
2023-03-10T10:01:06.491Z,552.00
2023-03-10T10:01:56.562Z,553.00
2023-03-10T10:02:46.706Z,567.00
2023-03-10T10:03:50.054Z,549.00
2023-03-10T10:04:27.783Z,549.00
2023-03-10T10:05:17.397Z,550.00
2023-03-10T10:06:06.910Z,552.00
2023-03-10T10:06:56.970Z,553.00
2023-03-10T10:07:47.042Z,558.00
2023-03-10T10:08:37.105Z,560.00
2023-03-10T10:09:27.133Z,555.00
2023-03-10T10:10:17.299Z,561.00
2023-03-10T10:11:07.291Z,562.00
2023-03-10T10:11:57.349Z,556.00
2023-03-10T10:12:47.409Z,562.00
2023-03-10T10:13:37.433Z,555.00
2023-03-10T10:14:30.763Z,555.00
2023-03-10T10:15:17.567Z,562.00
2023-03-10T10:16:24.595Z,555.00
2023-03-10T10:16:58.800Z,556.00
2023-03-10T10:17:55.154Z,556.00
2023-03-10T10:18:38.832Z,555.00
2023-03-10T10:19:27.893Z,551.00
2023-03-10T10:20:17.914Z,556.00
2023-03-10T10:21:10.154Z,558.00
2023-03-10T10:21:58.041Z,556.00
2023-03-10T10:22:48.109Z,553.00
2023-03-10T10:23:38.455Z,547.00
2023-03-10T10:24:28.514Z,554.00